Time;durP1;ratioP1;P1;durP2;ratioP2;P2;SDS_P1;SDS_P2;PMS_P1;PMS_P2;Temp;Humidity;BMP_temperature;BMP_pressure;BME280_temperature;BME280_humidity;BME280_pressure;Samples;Min_cycle;Max_cycle;Signal;HPM_P1;HPM_P2
2022/05/03 00:00:16;;;;;;;5.43;3.45;;;7.70;99.90;;;;;;5001020;28;20054;-67
2022/05/03 00:03:03;;;;;;;5.47;3.38;;;7.70;99.90;;;;;;4994267;28;20195;-67
2022/05/03 00:05:47;;;;;;;4.25;3.42;;;7.00;99.90;;;;;;4995426;28;20049;-67
2022/05/03 00:08:24;;;;;;;6.38;3.55;;;7.60;99.90;;;;;;5001138;28;20038;-67
2022/05/03 00:11:05;;;;;;;3.75;2.67;;;7.40;99.90;;;;;;5001863;28;20839;-67
2022/05/03 00:13:41;;;;;;;4.53;2.92;;;7.50;99.90;;;;;;5009127;28;20057;-67
2022/05/03 00:16:08;;;;;;;4.63;2.85;;;7.40;99.90;;;;;;5006667;28;20895;-66
2022/05/03 00:18:34;;;;;;;4.78;2.80;;;7.40;99.90;;;;;;5004987;28;20125;-67
2022/05/03 00:21:00;;;;;;;4.55;3.05;;;7.40;99.90;;;;;;5000300;28;20042;-67
2022/05/03 00:23:25;;;;;;;4.93;2.95;;;7.40;99.90;;;;;;5001063;28;20123;-66
2022/05/03 00:25:52;;;;;;;4.65;3.10;;;7.30;99.90;;;;;;5000155;28;20397;-67
2022/05/03 00:28:19;;;;;;;3.85;2.80;;;7.30;99.90;;;;;;4998428;28;20092;-67
2022/05/03 00:30:46;;;;;;;5.32;3.15;;;7.30;99.90;;;;;;5001221;28;20046;-67
2022/05/03 00:33:12;;;;;;;3.63;3.15;;;7.20;99.90;;;;;;5001058;28;20085;-67
2022/05/03 00:35:39;;;;;;;3.92;3.17;;;7.20;99.90;;;;;;5012444;28;20060;-66
2022/05/03 00:38:04;;;;;;;5.38;4.15;;;7.20;99.90;;;;;;5012379;28;20045;-67
2022/05/03 00:40:32;;;;;;;5.80;4.25;;;7.20;99.90;;;;;;5002890;28;20042;-67
2022/05/03 00:43:30;;;;;;;4.75;3.22;;;7.20;99.90;;;;;;5003342;28;20046;-66
2022/05/03 00:46:05;;;;;;;6.63;3.40;;;7.20;99.90;;;;;;5000139;28;20060;-67
2022/05/03 00:49:00;;;;;;;6.05;3.63;;;7.20;99.90;;;;;;5001738;28;20053;-67
2022/05/03 00:51:33;;;;;;;7.53;4.38;;;7.10;99.90;;;;;;5009382;28;20079;-67
2022/05/03 00:54:30;;;;;;;5.20;4.07;;;7.10;99.90;;;;;;5001231;28;20049;-67
2022/05/03 00:57:05;;;;;;;6.30;4.38;;;7.00;99.90;;;;;;5004213;28;20072;-67
2022/05/03 01:00:05;;;;;;;7.05;4.43;;;7.10;99.90;;;;;;5001698;28;20843;-66
2022/05/03 01:02:52;;;;;;;4.78;3.50;;;8.50;99.90;;;;;;5001732;28;20056;-66
2022/05/03 01:05:28;;;;;;;6.32;4.60;;;7.00;99.90;;;;;;5001447;28;20081;-66
2022/05/03 01:08:07;;;;;;;12.27;5.07;;;6.90;99.90;;;;;;5002182;28;20045;-66
2022/05/03 01:10:36;;;;;;;7.05;4.20;;;6.90;99.90;;;;;;5001238;28;20052;-66
2022/05/03 01:13:44;;;;;;;5.40;3.95;;;6.90;99.90;;;;;;5012726;28;20045;-67
2022/05/03 01:16:31;;;;;;;5.82;4.47;;;6.90;99.90;;;;;;5001228;28;20144;-66
2022/05/03 01:19:27;;;;;;;5.70;4.53;;;6.80;99.90;;;;;;4987628;28;20160;-66
2022/05/03 01:22:01;;;;;;;8.82;4.72;;;6.80;99.90;;;;;;5001036;28;20909;-66
2022/05/03 01:24:37;;;;;;;7.50;4.47;;;6.80;99.90;;;;;;5014620;28;20053;-66
2022/05/03 01:27:40;;;;;;;6.07;4.35;;;7.30;99.90;;;;;;5004313;28;20076;-66
2022/05/03 01:30:09;;;;;;;8.33;5.73;;;6.70;99.90;;;;;;5004725;28;20163;-66
2022/05/03 01:32:38;;;;;;;5.82;4.57;;;6.70;99.90;;;;;;5004237;28;20601;-65
2022/05/03 01:35:06;;;;;;;6.40;4.90;;;6.70;99.90;;;;;;5003946;28;21008;-66
2022/05/03 01:37:49;;;;;;;4.25;3.45;;;6.70;99.90;;;;;;5004856;28;20128;-66
2022/05/03 01:40:45;;;;;;;6.85;4.30;;;6.70;99.90;;;;;;5005171;28;20600;-66
2022/05/03 01:43:18;;;;;;;7.25;4.75;;;6.70;99.90;;;;;;5019006;28;20128;-66
2022/05/03 01:46:02;;;;;;;8.52;4.88;;;6.60;99.90;;;;;;5002851;28;20831;-66
2022/05/03 01:50:18;;;;;;;;;;;6.60;99.90;;;;;;5004579;28;20033;-66
2022/05/03 01:51:55;;;;;;;4.65;4.00;;;6.60;99.90;;;;;;5002774;28;19929;-66
2022/05/03 01:54:40;;;;;;;6.07;4.15;;;6.50;99.90;;;;;;5027932;28;20817;-67
2022/05/03 01:57:25;;;;;;;7.57;5.05;;;6.50;99.90;;;;;;5010480;28;20046;-67
2022/05/03 02:00:08;;;;;;;6.95;4.85;;;6.60;99.90;;;;;;5002929;28;20060;-67
2022/05/03 02:02:54;;;;;;;7.65;4.65;;;6.60;99.90;;;;;;5004367;28;20080;-66
2022/05/03 02:05:40;;;;;;;8.82;5.70;;;6.60;99.90;;;;;;5004227;28;20148;-66
2022/05/03 02:08:14;;;;;;;6.22;4.72;;;6.50;99.90;;;;;;5032516;28;20346;-66
2022/05/03 02:11:09;;;;;;;6.32;3.95;;;6.50;99.90;;;;;;5007422;28;20842;-66
2022/05/03 02:16:51;;;;;;;4.57;3.80;;;6.50;99.90;;;;;;5002077;28;20849;-66
2022/05/03 02:19:39;;;;;;;8.27;5.43;;;6.50;99.90;;;;;;5013296;28;20049;-66
2022/05/03 02:22:24;;;;;;;6.43;5.18;;;6.50;99.90;;;;;;4995298;28;20115;-66
2022/05/03 02:25:12;;;;;;;6.50;5.72;;;6.50;99.90;;;;;;5013689;28;20060;-66
2022/05/03 02:27:47;;;;;;;5.80;4.70;;;6.40;99.90;;;;;;5015649;28;20875;-66
2022/05/03 02:30:14;;;;;;;6.30;5.70;;;7.50;99.90;;;;;;5015097;28;20053;-66
2022/05/03 02:32:59;;;;;;;7.28;4.78;;;6.40;99.90;;;;;;5015789;28;20083;-66
2022/05/03 02:35:32;;;;;;;5.88;4.30;;;6.30;99.90;;;;;;5008086;28;20076;-66
2022/05/03 02:38:04;;;;;;;5.95;4.45;;;6.30;99.90;;;;;;5015985;28;20091;-66
2022/05/03 02:40:31;;;;;;;7.75;5.60;;;6.30;99.90;;;;;;5016611;28;20052;-66
2022/05/03 02:42:57;;;;;;;7.70;5.90;;;6.30;99.90;;;;;;5013972;28;20049;-66
2022/05/03 02:45:23;;;;;;;8.35;5.43;;;6.30;99.90;;;;;;5015493;28;20041;-66
2022/05/03 02:47:55;;;;;;;7.18;4.85;;;6.30;99.90;;;;;;5016208;28;20081;-66
2022/05/03 02:50:28;;;;;;;8.40;4.65;;;6.30;99.90;;;;;;5015664;28;20148;-66
2022/05/03 02:53:02;;;;;;;8.45;6.72;;;6.30;99.90;;;;;;5016187;28;20057;-66
2022/05/03 02:55:28;;;;;;;6.70;5.25;;;6.30;99.90;;;;;;5016046;28;20178;-66
2022/05/03 02:58:08;;;;;;;6.55;5.18;;;6.30;99.90;;;;;;5014432;28;20497;-66
2022/05/03 03:03:49;;;;;;;8.98;6.93;;;6.30;99.90;;;;;;5015423;28;20057;-66
2022/05/03 03:06:21;;;;;;;8.57;5.18;;;6.30;99.90;;;;;;5015116;28;20057;-66
2022/05/03 03:08:51;;;;;;;6.57;5.75;;;6.30;99.90;;;;;;5015979;28;20099;-66
2022/05/03 03:11:42;;;;;;;7.85;6.18;;;6.30;99.90;;;;;;5015430;28;20400;-66
2022/05/03 03:14:21;;;;;;;9.10;5.65;;;7.50;99.90;;;;;;5014769;28;20057;-66
2022/05/03 03:16:52;;;;;;;7.70;5.65;;;6.40;99.90;;;;;;5015397;28;20640;-66
2022/05/03 03:19:45;;;;;;;7.85;5.88;;;6.40;99.90;;;;;;5014046;28;20152;-66
2022/05/03 03:22:15;;;;;;;8.90;5.75;;;6.40;99.90;;;;;;5014895;28;20559;-66
2022/05/03 03:24:42;;;;;;;8.90;5.32;;;6.50;99.90;;;;;;5015359;28;20053;-66
2022/05/03 03:27:12;;;;;;;10.18;6.32;;;6.60;99.90;;;;;;5015158;28;20045;-66
2022/05/03 03:29:39;;;;;;;6.72;5.50;;;6.70;99.90;;;;;;5014640;28;20862;-66
2022/05/03 03:32:07;;;;;;;7.40;6.68;;;6.70;99.90;;;;;;5012934;28;20049;-66
2022/05/03 03:34:34;;;;;;;8.55;5.90;;;6.80;99.90;;;;;;5015851;28;20049;-66
2022/05/03 03:37:01;;;;;;;9.27;6.65;;;6.90;99.90;;;;;;5012816;28;20140;-66
2022/05/03 03:39:31;;;;;;;9.40;6.88;;;7.10;99.90;;;;;;5014683;28;20671;-66
2022/05/03 03:42:07;;;;;;;10.73;7.20;;;7.20;99.90;;;;;;5014516;28;20049;-66
2022/05/03 03:44:33;;;;;;;10.23;6.75;;;7.20;99.90;;;;;;5015283;28;20050;-66
2022/05/03 03:47:00;;;;;;;12.57;7.93;;;7.30;99.90;;;;;;5014195;28;20053;-66
2022/05/03 03:49:27;;;;;;;10.48;8.23;;;7.30;99.90;;;;;;5015711;28;20120;-66
2022/05/03 03:51:54;;;;;;;11.40;7.70;;;7.40;99.90;;;;;;5013827;28;20066;-66
2022/05/03 03:54:19;;;;;;;14.02;8.18;;;7.40;99.90;;;;;;5013110;28;20053;-66
2022/05/03 03:56:46;;;;;;;9.07;6.03;;;7.40;99.90;;;;;;5013410;28;20086;-66
2022/05/03 03:59:14;;;;;;;10.15;7.00;;;7.40;99.90;;;;;;5012833;28;20049;-66
2022/05/03 04:01:41;;;;;;;9.25;7.32;;;7.40;99.90;;;;;;5015722;28;20069;-66
2022/05/03 04:04:08;;;;;;;13.13;7.78;;;7.40;99.90;;;;;;5013429;28;20057;-66
2022/05/03 04:06:35;;;;;;;8.13;6.95;;;7.30;99.90;;;;;;5014402;28;20064;-66
2022/05/03 04:09:00;;;;;;;9.07;6.55;;;7.30;99.90;;;;;;5015050;28;20053;-67
2022/05/03 04:11:26;;;;;;;10.43;7.78;;;7.20;99.90;;;;;;5014551;28;20094;-66
2022/05/03 04:13:53;;;;;;;9.90;6.72;;;7.30;99.90;;;;;;5012106;28;20073;-66
2022/05/03 04:16:18;;;;;;;8.27;6.50;;;7.20;99.90;;;;;;5014219;28;20077;-66
2022/05/03 04:18:44;;;;;;;11.00;7.53;;;7.10;99.90;;;;;;5013245;28;20144;-66
2022/05/03 04:21:17;;;;;;;10.30;7.13;;;7.20;99.90;;;;;;5014189;28;20053;-66
2022/05/03 04:23:45;;;;;;;10.45;6.75;;;7.20;99.90;;;;;;5014328;28;20063;-66
2022/05/03 04:26:14;;;;;;;10.25;7.57;;;7.30;99.90;;;;;;5014323;28;20630;-66
2022/05/03 04:28:40;;;;;;;10.27;7.03;;;7.40;99.90;;;;;;5013602;28;20800;-66
2022/05/03 04:31:06;;;;;;;10.30;5.57;;;7.40;99.90;;;;;;5013696;28;20056;-66
2022/05/03 04:33:32;;;;;;;10.85;7.90;;;7.50;99.90;;;;;;5013077;28;20049;-66
2022/05/03 04:35:57;;;;;;;8.98;6.40;;;7.50;99.90;;;;;;5014153;28;20104;-67
2022/05/03 04:38:23;;;;;;;9.10;6.78;;;7.60;99.90;;;;;;5013324;28;20052;-66
2022/05/03 04:40:49;;;;;;;12.15;8.43;;;7.70;99.90;;;;;;5014163;28;20119;-66
2022/05/03 04:43:16;;;;;;;6.78;6.00;;;7.80;99.90;;;;;;5010767;28;20383;-66
2022/05/03 04:45:42;;;;;;;13.25;6.68;;;7.80;99.90;;;;;;5001824;28;20054;-66
2022/05/03 04:48:08;;;;;;;8.00;6.20;;;8.00;99.90;;;;;;4996268;28;20757;-66
2022/05/03 04:50:35;;;;;;;9.25;7.43;;;8.00;99.90;;;;;;4995798;28;20052;-66
2022/05/03 04:53:00;;;;;;;13.25;7.30;;;8.00;99.90;;;;;;4994821;28;20050;-65
2022/05/03 04:55:27;;;;;;;11.68;7.55;;;8.10;99.90;;;;;;4995352;28;20038;-67
2022/05/03 04:57:53;;;;;;;8.60;6.20;;;8.10;99.90;;;;;;4994572;28;20061;-67
2022/05/03 05:00:19;;;;;;;10.25;7.28;;;8.20;99.90;;;;;;4995144;28;20049;-67
2022/05/03 05:02:44;;;;;;;13.30;8.52;;;8.30;99.90;;;;;;4993525;28;20076;-67
2022/05/03 05:05:10;;;;;;;12.45;9.30;;;8.30;99.90;;;;;;4993926;28;20104;-67
2022/05/03 05:07:36;;;;;;;14.07;9.13;;;8.40;99.90;;;;;;4994105;28;20050;-67
2022/05/03 05:12:45;;;;;;;17.02;8.23;;;8.50;99.90;;;;;;5010251;28;20045;-65
2022/05/03 05:15:11;;;;;;;13.85;7.47;;;8.50;99.90;;;;;;5002508;28;20046;-65
2022/05/03 05:17:36;;;;;;;14.80;9.45;;;8.60;99.90;;;;;;4994307;28;20042;-65
2022/05/03 05:20:03;;;;;;;11.52;8.00;;;8.60;99.90;;;;;;5015689;28;20106;-65
2022/05/03 05:22:28;;;;;;;17.42;8.73;;;8.70;99.90;;;;;;5002125;28;20838;-65
2022/05/03 05:24:54;;;;;;;10.25;8.93;;;8.70;99.90;;;;;;4994474;28;20042;-64
2022/05/03 05:27:19;;;;;;;16.70;10.20;;;8.70;99.90;;;;;;5002238;28;20135;-65
2022/05/03 05:29:45;;;;;;;16.08;10.10;;;8.80;99.90;;;;;;5002570;28;20061;-65
2022/05/03 05:32:10;;;;;;;15.15;9.85;;;8.80;99.90;;;;;;5000664;28;20034;-64
2022/05/03 05:34:36;;;;;;;16.00;11.05;;;8.80;99.90;;;;;;5006012;28;20048;-68
2022/05/03 05:37:02;;;;;;;16.58;10.25;;;8.90;99.90;;;;;;5005108;28;20125;-64
2022/05/03 05:39:27;;;;;;;14.88;10.05;;;9.00;99.90;;;;;;4997411;28;20827;-64
2022/05/03 05:41:59;;;;;;;16.77;11.07;;;9.00;99.90;;;;;;4998268;28;20049;-65
2022/05/03 05:44:25;;;;;;;17.40;10.43;;;9.10;99.90;;;;;;5003166;28;20951;-65
2022/05/03 05:46:52;;;;;;;14.70;9.93;;;9.20;99.90;;;;;;5002059;28;20046;-64
2022/05/03 05:49:18;;;;;;;26.95;14.85;;;9.20;99.90;;;;;;4997331;28;20080;-65
2022/05/03 05:51:45;;;;;;;21.95;11.98;;;8.60;99.90;;;;;;4992838;28;20053;-64
2022/05/03 05:54:10;;;;;;;18.13;13.20;;;9.30;99.90;;;;;;4998506;28;20053;-65
2022/05/03 05:56:42;;;;;;;19.92;11.52;;;9.40;99.90;;;;;;4993909;28;20054;-65
2022/05/03 05:59:08;;;;;;;18.02;11.30;;;9.40;99.90;;;;;;4993270;28;20057;-65
2022/05/03 06:01:39;;;;;;;20.23;11.38;;;9.50;99.90;;;;;;4996085;28;20057;-65
2022/05/03 06:04:05;;;;;;;22.30;11.75;;;9.50;99.90;;;;;;4992136;28;20058;-65
2022/05/03 06:06:32;;;;;;;17.92;11.40;;;9.50;99.90;;;;;;4998311;28;20084;-66
2022/05/03 06:08:59;;;;;;;17.75;11.18;;;9.50;99.90;;;;;;4998482;28;20769;-66
2022/05/03 06:11:24;;;;;;;17.55;10.63;;;9.50;99.90;;;;;;4992709;28;20065;-66
2022/05/03 06:13:50;;;;;;;16.50;11.30;;;9.50;99.90;;;;;;4998276;28;20111;-66
2022/05/03 06:16:16;;;;;;;19.67;11.65;;;9.60;99.90;;;;;;4994800;28;20060;-65
2022/05/03 06:18:41;;;;;;;21.48;12.57;;;9.60;99.90;;;;;;4997497;28;20756;-66
2022/05/03 06:21:07;;;;;;;17.83;13.55;;;9.60;99.90;;;;;;5000584;28;20048;-65
2022/05/03 06:23:33;;;;;;;19.50;12.25;;;9.60;99.90;;;;;;5007633;28;20084;-66
2022/05/03 06:25:59;;;;;;;28.05;13.45;;;9.60;99.90;;;;;;5013550;28;20143;-66
2022/05/03 06:28:25;;;;;;;18.50;13.07;;;9.70;99.90;;;;;;5013945;28;20053;-66
2022/05/03 06:30:50;;;;;;;29.45;15.13;;;9.70;99.90;;;;;;5009415;28;20053;-65
2022/05/03 06:33:16;;;;;;;24.50;13.20;;;9.80;99.90;;;;;;5003934;28;20087;-65
2022/05/03 06:35:41;;;;;;;23.33;14.70;;;9.80;99.90;;;;;;4997435;28;20081;-65
2022/05/03 06:38:07;;;;;;;23.05;12.40;;;9.80;99.90;;;;;;4999765;28;20046;-66
2022/05/03 06:40:32;;;;;;;23.48;14.32;;;9.90;99.90;;;;;;4997486;28;20046;-66
2022/05/03 06:42:58;;;;;;;25.38;14.85;;;9.90;99.90;;;;;;4991895;28;20052;-66
2022/05/03 06:45:24;;;;;;;23.50;14.07;;;9.80;99.90;;;;;;4997868;28;20053;-65
2022/05/03 06:47:50;;;;;;;21.08;14.40;;;9.80;99.90;;;;;;5000860;28;20050;-66
2022/05/03 06:50:16;;;;;;;25.00;15.90;;;9.80;99.90;;;;;;4997680;28;20030;-65
2022/05/03 06:52:42;;;;;;;18.85;11.68;;;9.50;99.90;;;;;;4993176;28;20041;-66
2022/05/03 06:55:08;;;;;;;18.88;13.18;;;9.80;99.90;;;;;;5000621;28;20045;-65
2022/05/03 06:57:34;;;;;;;24.25;13.35;;;9.80;99.90;;;;;;5001759;28;20076;-66
2022/05/03 07:00:02;;;;;;;20.58;11.40;;;9.80;99.90;;;;;;4997590;28;20569;-66
2022/05/03 07:02:30;;;;;;;17.75;12.38;;;9.90;99.90;;;;;;5001843;28;20050;-66
2022/05/03 07:04:56;;;;;;;17.20;11.10;;;9.80;99.90;;;;;;4999923;28;20049;-66
2022/05/03 07:07:22;;;;;;;12.75;9.55;;;9.90;99.90;;;;;;4999821;28;20481;-66
2022/05/03 07:09:47;;;;;;;13.45;7.15;;;9.90;99.90;;;;;;4993325;28;20049;-65
2022/05/03 07:12:13;;;;;;;7.00;5.22;;;9.80;99.90;;;;;;4996251;28;20034;-65
2022/05/03 07:14:38;;;;;;;9.20;5.50;;;9.70;99.90;;;;;;4998715;28;20140;-65
2022/05/03 07:17:05;;;;;;;8.07;5.65;;;9.70;99.90;;;;;;5001492;28;20048;-65
2022/05/03 07:24:59;;;;;;;9.90;4.43;;;9.70;99.90;;;;;;4992410;28;20061;-65
2022/05/03 07:27:24;;;;;;;7.65;4.63;;;9.60;99.90;;;;;;4994461;28;20045;-65
2022/05/03 07:29:50;;;;;;;10.02;4.30;;;9.70;99.90;;;;;;5001223;28;20516;-66
2022/05/03 07:32:15;;;;;;;9.85;3.95;;;9.70;99.90;;;;;;4994254;28;20448;-66
2022/05/03 07:34:41;;;;;;;6.95;4.40;;;9.70;99.90;;;;;;4997705;28;20045;-65
2022/05/03 07:37:07;;;;;;;9.23;4.00;;;9.80;99.90;;;;;;4995820;28;20156;-66
2022/05/03 07:39:32;;;;;;;6.50;3.45;;;9.80;99.90;;;;;;5002908;28;20051;-65
2022/05/03 07:41:58;;;;;;;5.20;3.38;;;9.80;99.90;;;;;;5002822;28;20042;-65
2022/05/03 07:44:24;;;;;;;6.68;4.07;;;9.80;99.90;;;;;;5000083;28;20042;-65
2022/05/03 07:46:49;;;;;;;6.78;3.72;;;9.80;99.90;;;;;;4993274;28;20494;-65
2022/05/03 07:49:15;;;;;;;6.50;4.00;;;9.80;99.90;;;;;;4996243;28;20839;-64
2022/05/03 07:51:43;;;;;;;8.90;3.92;;;9.80;99.90;;;;;;4993585;28;20065;-64
2022/05/03 07:54:09;;;;;;;14.00;4.20;;;9.80;99.90;;;;;;4995770;28;20061;-65
2022/05/03 07:56:35;;;;;;;4.70;3.20;;;9.80;99.90;;;;;;5010762;28;20050;-62
2022/05/03 07:59:02;;;;;;;11.13;5.25;;;9.80;99.90;;;;;;4998538;28;20041;-62
2022/05/03 08:01:28;;;;;;;5.43;4.05;;;9.80;99.90;;;;;;5002849;28;20045;-63
2022/05/03 08:03:54;;;;;;;6.03;3.88;;;9.80;99.90;;;;;;4996074;28;20057;-63
2022/05/03 08:06:23;;;;;;;7.88;3.63;;;9.90;99.90;;;;;;4994790;28;20108;-64
2022/05/03 08:08:48;;;;;;;9.98;4.40;;;9.90;99.90;;;;;;4999881;28;20042;-62
2022/05/03 08:11:14;;;;;;;8.57;4.25;;;9.90;99.90;;;;;;5007632;28;20068;-63
2022/05/03 08:13:39;;;;;;;5.25;3.88;;;9.90;99.90;;;;;;5000228;28;20046;-62
2022/05/03 08:16:16;;;;;;;11.65;4.55;;;9.90;99.90;;;;;;5012148;28;20041;-63
2022/05/03 08:18:42;;;;;;;8.00;3.75;;;9.90;99.90;;;;;;5015150;28;20057;-62
2022/05/03 08:21:07;;;;;;;9.13;4.57;;;10.00;99.90;;;;;;5014252;28;20606;-62
2022/05/03 08:23:35;;;;;;;9.80;4.60;;;10.00;99.90;;;;;;5016456;28;20682;-62
2022/05/03 08:26:00;;;;;;;10.05;4.22;;;10.00;99.90;;;;;;5017792;28;20054;-62
2022/05/03 08:28:26;;;;;;;10.30;3.22;;;10.00;99.90;;;;;;5017241;28;20069;-62
2022/05/03 08:30:51;;;;;;;6.95;3.65;;;10.10;99.90;;;;;;5013096;28;20037;-62
2022/05/03 08:33:17;;;;;;;7.75;3.92;;;10.10;99.90;;;;;;5016942;28;20110;-63
2022/05/03 08:35:43;;;;;;;10.38;4.38;;;10.10;99.90;;;;;;5011101;28;20559;-62
2022/05/03 08:43:38;;;;;;;5.78;3.60;;;10.30;99.90;;;;;;4996004;28;20073;-62
2022/05/03 08:46:06;;;;;;;9.95;3.78;;;10.30;99.90;;;;;;5006457;28;20049;-62
2022/05/03 08:48:35;;;;;;;8.90;3.58;;;10.40;99.90;;;;;;5009409;28;20053;-62
2022/05/03 08:51:01;;;;;;;14.07;4.93;;;10.50;99.90;;;;;;5018516;28;20053;-62
2022/05/03 08:53:27;;;;;;;14.65;3.75;;;10.50;99.90;;;;;;5018498;28;20092;-63
2022/05/03 08:55:53;;;;;;;8.88;3.00;;;10.60;99.90;;;;;;5017052;28;20049;-62
2022/05/03 08:58:19;;;;;;;8.93;3.60;;;10.60;99.90;;;;;;5017368;28;20512;-64
2022/05/03 09:00:45;;;;;;;8.13;4.78;;;10.50;99.90;;;;;;5015102;28;20049;-65
2022/05/03 09:03:12;;;;;;;5.32;3.15;;;10.50;99.90;;;;;;5016180;28;20138;-65
2022/05/03 09:05:39;;;;;;;14.57;3.40;;;10.50;99.90;;;;;;5012354;28;20135;-65
2022/05/03 09:08:08;;;;;;;7.60;3.67;;;10.60;99.90;;;;;;5000195;28;20115;-65
2022/05/03 09:10:36;;;;;;;6.57;3.15;;;10.70;99.90;;;;;;4997688;28;20378;-65
2022/05/03 09:13:18;;;;;;;5.80;3.03;;;10.70;99.90;;;;;;5002574;28;20080;-65
2022/05/03 09:15:47;;;;;;;11.07;4.60;;;10.80;99.90;;;;;;4993868;28;20854;-65
2022/05/03 09:18:27;;;;;;;8.10;2.70;;;10.70;99.90;;;;;;5002859;28;20141;-63
2022/05/03 09:23:51;;;;;;;6.90;2.65;;;10.80;99.90;;;;;;5008279;28;20683;-64
2022/05/03 09:26:18;;;;;;;13.95;3.53;;;10.80;99.90;;;;;;5016694;28;20547;-62
2022/05/03 09:28:52;;;;;;;8.55;3.17;;;10.80;99.90;;;;;;4668268;28;10000092;-64
2022/05/03 09:31:39;;;;;;;7.72;2.97;;;10.90;99.90;;;;;;5013860;28;20041;-64
2022/05/03 09:34:26;;;;;;;9.05;2.83;;;10.90;99.90;;;;;;5013891;28;20060;-63
2022/05/03 09:36:58;;;;;;;9.40;3.45;;;10.90;99.90;;;;;;5012207;28;20052;-64
2022/05/03 09:39:29;;;;;;;6.07;2.73;;;11.10;99.90;;;;;;4999556;28;20050;-63
2022/05/03 09:42:06;;;;;;;5.35;2.42;;;11.20;99.90;;;;;;4999709;28;20052;-63
2022/05/03 09:44:36;;;;;;;11.15;3.55;;;11.10;99.90;;;;;;5004546;28;20064;-64
2022/05/03 09:47:06;;;;;;;7.68;4.63;;;11.00;99.90;;;;;;4997455;28;20766;-64
2022/05/03 09:49:40;;;;;;;3.65;2.30;;;11.00;99.90;;;;;;4992550;28;20050;-64
2022/05/03 09:52:09;;;;;;;4.97;2.90;;;11.00;99.90;;;;;;5013822;28;20119;-64
2022/05/03 09:54:51;;;;;;;5.30;2.38;;;11.10;99.90;;;;;;5013555;28;20053;-66
2022/05/03 09:57:21;;;;;;;8.85;3.00;;;11.20;99.90;;;;;;5014028;28;20065;-66
2022/05/03 09:59:48;;;;;;;2.92;2.13;;;11.30;99.90;;;;;;5004134;28;20113;-66
2022/05/03 10:02:17;;;;;;;4.72;2.30;;;11.40;99.90;;;;;;5013676;28;20113;-66
2022/05/03 10:04:47;;;;;;;9.90;3.00;;;11.40;99.90;;;;;;5014608;28;20730;-65
2022/05/03 10:07:14;;;;;;;3.50;2.83;;;11.40;99.90;;;;;;5015403;28;20569;-65
2022/05/03 10:09:44;;;;;;;13.80;3.00;;;11.50;99.90;;;;;;5015900;28;20044;-66
2022/05/03 10:12:11;;;;;;;6.13;2.80;;;11.60;99.90;;;;;;5014544;28;20046;-65
2022/05/03 10:14:38;;;;;;;6.38;2.55;;;11.80;99.90;;;;;;5017142;28;20676;-65
2022/05/03 10:22:42;;;;;;;6.97;2.55;;;11.90;99.90;;;;;;5004338;28;20086;-65
2022/05/03 10:25:08;;;;;;;5.75;2.78;;;12.00;99.90;;;;;;5017589;28;20041;-65
2022/05/03 10:27:56;;;;;;;5.40;3.90;;;12.30;99.90;;;;;;5014628;28;20069;-66
2022/05/03 10:30:24;;;;;;;8.15;3.25;;;12.60;99.90;;;;;;5016733;28;20056;-66
2022/05/03 10:33:21;;;;;;;13.68;3.80;;;12.50;99.90;;;;;;5014837;28;20064;-66
2022/05/03 10:35:50;;;;;;;7.78;2.83;;;12.60;99.90;;;;;;5017274;28;20041;-65
2022/05/03 10:38:33;;;;;;;7.35;2.58;;;12.90;99.90;;;;;;5017410;28;20055;-65
2022/05/03 10:40:59;;;;;;;6.72;3.35;;;13.30;99.90;;;;;;5016660;28;20162;-65
2022/05/03 10:43:27;;;;;;;4.15;2.10;;;13.10;98.00;;;;;;5016668;28;20049;-65
2022/05/03 10:46:13;;;;;;;11.75;2.28;;;12.80;98.70;;;;;;5015003;28;20089;-65
2022/05/03 10:48:43;;;;;;;5.82;2.78;;;13.00;98.70;;;;;;5015120;28;20053;-65
2022/05/03 10:51:10;;;;;;;5.75;2.20;;;13.10;97.50;;;;;;5016738;28;20045;-65
2022/05/03 10:53:38;;;;;;;3.92;2.17;;;12.80;97.30;;;;;;5016932;28;20038;-66
2022/05/03 10:56:05;;;;;;;2.55;1.95;;;13.00;98.40;;;;;;5014055;28;20045;-66
2022/05/03 10:58:32;;;;;;;4.50;2.33;;;13.30;98.20;;;;;;5015340;28;20179;-65
2022/05/03 11:01:11;;;;;;;3.88;2.20;;;13.40;96.10;;;;;;5014269;28;20359;-66
2022/05/03 11:03:41;;;;;;;5.03;1.98;;;13.80;96.00;;;;;;5016156;28;20057;-66
2022/05/03 11:06:19;;;;;;;4.63;2.50;;;13.80;96.00;;;;;;5016247;28;20092;-66
2022/05/03 11:09:02;;;;;;;3.45;2.15;;;13.60;94.80;;;;;;5013982;28;20060;-65
2022/05/03 11:11:43;;;;;;;2.92;1.63;;;13.60;95.70;;;;;;5015830;28;20060;-66
2022/05/03 11:14:21;;;;;;;4.55;1.95;;;13.90;96.20;;;;;;5013889;28;20400;-65
2022/05/03 11:17:10;;;;;;;5.30;2.25;;;13.80;95.60;;;;;;5013655;28;20497;-65
2022/05/03 11:19:37;;;;;;;5.22;1.77;;;13.60;96.50;;;;;;5015872;28;20375;-65
2022/05/03 11:22:12;;;;;;;5.28;2.50;;;13.40;97.10;;;;;;5013965;28;20052;-66
2022/05/03 11:24:42;;;;;;;4.78;1.80;;;13.70;95.80;;;;;;5016359;28;20056;-65
2022/05/03 11:27:10;;;;;;;4.30;1.67;;;13.70;95.30;;;;;;5015666;28;20053;-66
2022/05/03 11:29:37;;;;;;;1.92;1.65;;;13.60;96.40;;;;;;5016015;28;20052;-65
2022/05/03 11:32:06;;;;;;;2.50;2.15;;;13.00;94.60;;;;;;5014484;28;20061;-65
2022/05/03 11:34:32;;;;;;;2.58;1.55;;;12.80;95.90;;;;;;5015858;28;20045;-65
2022/05/03 11:36:58;;;;;;;6.07;1.63;;;13.00;95.70;;;;;;5015148;28;20053;-65
2022/05/03 11:39:24;;;;;;;5.65;2.20;;;13.20;96.20;;;;;;5016371;28;20056;-66
2022/05/03 11:41:50;;;;;;;3.78;1.63;;;13.30;95.30;;;;;;5013845;28;20929;-66
2022/05/03 11:44:17;;;;;;;4.57;1.60;;;13.60;95.10;;;;;;5014990;28;20508;-66
2022/05/03 11:46:44;;;;;;;3.25;2.05;;;14.10;95.80;;;;;;5015061;28;20103;-66
2022/05/03 11:49:12;;;;;;;7.18;2.92;;;14.40;93.80;;;;;;5014303;28;20055;-66
2022/05/03 11:57:13;;;;;;;4.60;1.98;;;13.70;94.90;;;;;;5013748;28;20092;-67
2022/05/03 11:59:40;;;;;;;2.92;2.08;;;13.90;94.00;;;;;;5015333;28;20085;-67
2022/05/03 12:02:19;;;;;;;3.53;1.70;;;13.60;93.50;;;;;;5015203;28;20677;-65
2022/05/03 12:05:16;;;;;;;1.90;1.55;;;13.60;94.30;;;;;;5014609;28;20057;-66
2022/05/03 12:07:53;;;;;;;5.70;2.08;;;14.00;93.30;;;;;;5015343;28;20061;-65
2022/05/03 12:10:34;;;;;;;2.58;1.63;;;13.60;92.00;;;;;;5015670;28;20045;-65
2022/05/03 12:13:16;;;;;;;4.03;1.88;;;13.60;92.30;;;;;;5014465;28;20048;-66
2022/05/03 12:16:03;;;;;;;3.37;1.63;;;14.00;93.20;;;;;;5014993;28;20049;-65
2022/05/03 12:18:40;;;;;;;4.00;1.33;;;13.80;92.10;;;;;;5012935;28;20049;-65
2022/05/03 12:21:21;;;;;;;4.43;1.75;;;13.90;93.20;;;;;;5014169;28;20166;-66
2022/05/03 12:23:51;;;;;;;2.33;1.60;;;14.10;92.90;;;;;;5013374;28;20100;-66
2022/05/03 12:26:17;;;;;;;2.25;1.85;;;13.90;92.40;;;;;;5015083;28;20060;-66
2022/05/03 12:28:52;;;;;;;3.55;1.95;;;13.70;93.10;;;;;;5015996;28;20045;-66
2022/05/03 12:31:20;;;;;;;2.55;1.75;;;14.30;93.40;;;;;;5015097;28;20053;-66
2022/05/03 12:33:57;;;;;;;3.13;1.60;;;13.90;93.60;;;;;;5014287;28;20118;-65
2022/05/03 12:36:31;;;;;;;3.47;1.77;;;13.90;92.80;;;;;;5015740;28;20822;-66
2022/05/03 12:39:07;;;;;;;4.75;1.40;;;13.80;91.90;;;;;;5013701;28;20148;-66
2022/05/03 12:41:34;;;;;;;5.55;1.67;;;13.90;93.30;;;;;;5001806;28;20041;-65
2022/05/03 12:44:04;;;;;;;5.80;2.03;;;13.70;93.30;;;;;;5010519;28;20490;-66
2022/05/03 12:46:30;;;;;;;3.50;1.80;;;13.60;93.30;;;;;;5012810;28;20926;-66
2022/05/03 12:48:57;;;;;;;2.97;1.67;;;13.70;93.80;;;;;;5014962;28;20616;-66
2022/05/03 12:51:24;;;;;;;2.42;1.38;;;13.90;92.80;;;;;;5013763;28;20800;-67
2022/05/03 12:53:50;;;;;;;5.47;1.88;;;13.80;93.70;;;;;;5014080;28;20116;-66
2022/05/03 12:59:00;;;;;;;4.72;2.78;;;13.50;92.40;;;;;;5014911;28;20782;-65
2022/05/03 13:01:26;;;;;;;1.85;1.48;;;13.80;93.40;;;;;;5013691;28;20136;-66
2022/05/03 13:03:51;;;;;;;1.77;1.60;;;14.30;92.60;;;;;;5014364;28;20132;-66
2022/05/03 13:06:20;;;;;;;3.33;1.98;;;14.40;92.70;;;;;;5013700;28;20955;-66
2022/05/03 13:08:46;;;;;;;4.75;1.90;;;14.50;91.40;;;;;;5014529;28;20103;-66
2022/05/03 13:11:13;;;;;;;1.88;1.60;;;14.80;91.70;;;;;;5017909;28;20867;-66
2022/05/03 13:13:38;;;;;;;2.60;1.65;;;14.80;91.20;;;;;;5018440;28;20037;-66
2022/05/03 13:16:04;;;;;;;5.13;1.65;;;14.50;90.70;;;;;;5017515;28;20111;-66
2022/05/03 13:18:30;;;;;;;4.35;1.80;;;14.30;90.70;;;;;;5016874;28;20049;-66
2022/05/03 13:20:56;;;;;;;2.53;1.60;;;14.20;90.80;;;;;;5017634;28;20141;-66
2022/05/03 13:23:22;;;;;;;5.88;1.70;;;14.10;91.20;;;;;;5016696;28;20810;-65
2022/05/03 13:25:48;;;;;;;6.20;1.42;;;13.80;91.30;;;;;;5018179;28;20045;-67
2022/05/03 13:28:15;;;;;;;2.50;1.70;;;14.00;92.90;;;;;;5017775;28;20423;-66
2022/05/03 13:30:42;;;;;;;6.72;2.08;;;14.10;92.80;;;;;;5015886;28;20049;-66
2022/05/03 13:33:08;;;;;;;4.15;1.63;;;14.20;92.10;;;;;;5017773;28;20655;-65
2022/05/03 13:41:02;;;;;;;4.05;2.00;;;14.00;92.40;;;;;;5017491;28;20122;-66
2022/05/03 13:43:28;;;;;;;2.10;1.70;;;14.00;92.00;;;;;;5017226;28;20049;-66
2022/05/03 13:45:54;;;;;;;2.95;1.75;;;13.80;91.30;;;;;;5017559;28;20053;-65
2022/05/03 13:48:20;;;;;;;4.22;1.70;;;13.60;92.70;;;;;;5017377;28;20056;-66